createdAt,value
2022-12-03T00:04:33.151Z,6.72
2022-12-03T00:09:36.739Z,5.65
2022-12-03T00:14:44.617Z,7.72
2022-12-03T00:19:52.844Z,6.95
2022-12-03T00:24:57.109Z,6.25
2022-12-03T00:30:00.412Z,3.22
2022-12-03T00:35:06.480Z,6.90
2022-12-03T00:40:11.805Z,7.28
2022-12-03T00:45:15.943Z,6.93
2022-12-03T00:50:21.250Z,3.13
2022-12-03T00:55:24.711Z,6.30
2022-12-03T01:00:28.101Z,3.90
2022-12-03T01:05:33.469Z,5.63
2022-12-03T01:10:38.486Z,5.43
2022-12-03T01:15:42.353Z,5.38
2022-12-03T01:20:47.237Z,5.40
2022-12-03T01:25:53.124Z,5.45
2022-12-03T01:31:13.915Z,5.82
2022-12-03T01:36:19.750Z,5.55
2022-12-03T01:41:23.218Z,4.93
2022-12-03T01:46:28.430Z,6.43
2022-12-03T01:51:36.504Z,6.00
2022-12-03T01:56:41.429Z,6.40
2022-12-03T02:01:44.956Z,4.10
2022-12-03T02:06:49.905Z,4.35
2022-12-03T02:11:53.715Z,6.00
2022-12-03T02:16:57.172Z,6.90
2022-12-03T02:22:06.176Z,3.78
2022-12-03T02:27:11.104Z,4.90
2022-12-03T02:32:14.716Z,5.78
2022-12-03T02:37:19.505Z,5.57
2022-12-03T02:42:39.687Z,5.90
2022-12-03T02:52:47.880Z,5.03
2022-12-03T02:57:52.789Z,3.72
2022-12-03T03:02:56.081Z,6.10
2022-12-03T03:08:02.203Z,6.28
2022-12-03T03:13:09.137Z,5.45
2022-12-03T03:18:13.005Z,4.32
2022-12-03T03:23:17.852Z,5.88
2022-12-03T03:28:22.707Z,4.75
2022-12-03T03:33:26.297Z,5.93
2022-12-03T03:38:29.951Z,5.18
2022-12-03T03:43:35.248Z,6.07
2022-12-03T03:48:41.045Z,6.95
2022-12-03T03:53:47.912Z,5.88
2022-12-03T03:58:52.509Z,6.82
2022-12-03T04:03:57.403Z,6.72
2022-12-03T04:09:01.385Z,6.03
2022-12-03T04:14:07.108Z,3.72
2022-12-03T04:19:10.554Z,6.85
2022-12-03T04:24:14.639Z,5.25
2022-12-03T04:29:19.697Z,8.05
2022-12-03T04:34:41.528Z,7.03
2022-12-03T04:39:45.268Z,6.88
2022-12-03T04:44:50.023Z,6.53
2022-12-03T04:49:53.370Z,6.75
2022-12-03T04:54:59.041Z,8.25
2022-12-03T05:00:03.855Z,7.05
2022-12-03T05:05:08.560Z,8.38
2022-12-03T05:10:13.442Z,7.60
2022-12-03T05:15:18.129Z,8.07
2022-12-03T05:20:39.760Z,8.00
2022-12-03T05:25:43.256Z,7.15
2022-12-03T05:30:51.000Z,8.15
2022-12-03T05:35:54.434Z,8.63
2022-12-03T05:40:57.736Z,8.07
2022-12-03T05:46:02.413Z,9.05
2022-12-03T05:51:07.405Z,9.80
2022-12-03T05:56:13.996Z,7.70
2022-12-03T06:01:18.524Z,9.25
2022-12-03T06:06:21.839Z,10.60
2022-12-03T06:11:26.156Z,11.07
2022-12-03T06:16:30.821Z,9.05
2022-12-03T06:21:34.972Z,10.05
2022-12-03T06:26:41.665Z,8.50
2022-12-03T06:31:46.626Z,10.10
2022-12-03T06:36:52.477Z,10.52
2022-12-03T06:41:57.764Z,8.25
2022-12-03T06:47:02.731Z,9.43
2022-12-03T06:52:08.421Z,10.50
2022-12-03T06:57:16.642Z,10.25
2022-12-03T07:02:21.439Z,8.45
2022-12-03T07:07:26.127Z,10.07
2022-12-03T07:12:29.668Z,11.02
2022-12-03T07:17:36.347Z,10.20
2022-12-03T07:22:39.792Z,12.52
2022-12-03T07:27:43.477Z,10.30
2022-12-03T07:32:49.236Z,10.38
2022-12-03T07:37:55.468Z,11.02
2022-12-03T07:42:58.626Z,11.20
2022-12-03T07:48:03.670Z,10.40
2022-12-03T07:53:09.177Z,11.35
2022-12-03T07:58:13.472Z,11.93
2022-12-03T08:03:18.012Z,10.60
2022-12-03T08:08:23.274Z,9.23
2022-12-03T08:13:27.470Z,11.02
2022-12-03T08:18:34.226Z,9.63
2022-12-03T08:23:37.648Z,7.50
2022-12-03T08:28:44.443Z,10.63
2022-12-03T08:33:49.737Z,8.77
2022-12-03T08:38:53.971Z,10.13
2022-12-03T08:43:59.012Z,11.27
2022-12-03T08:49:04.352Z,12.52
2022-12-03T08:54:13.665Z,10.85
2022-12-03T08:59:34.651Z,11.55
2022-12-03T09:04:42.221Z,10.32
2022-12-03T09:09:46.011Z,12.05
2022-12-03T09:14:51.353Z,10.90
2022-12-03T09:19:56.936Z,9.90
2022-12-03T09:25:00.146Z,10.57
2022-12-03T09:30:03.659Z,8.52
2022-12-03T09:35:09.494Z,10.32
2022-12-03T09:40:14.078Z,10.93
2022-12-03T09:45:19.642Z,10.45
2022-12-03T09:50:25.856Z,12.05
2022-12-03T09:55:30.834Z,9.50
2022-12-03T10:00:34.417Z,9.18
2022-12-03T10:05:45.200Z,10.38
2022-12-03T10:10:56.528Z,10.68
2022-12-03T10:16:01.375Z,7.97
2022-12-03T10:21:17.774Z,10.38
2022-12-03T10:26:23.369Z,11.52
2022-12-03T10:31:37.025Z,8.52
2022-12-03T10:36:42.745Z,8.98
2022-12-03T10:41:47.736Z,6.05
2022-12-03T10:47:08.465Z,8.80
2022-12-03T10:52:25.700Z,9.50
2022-12-03T10:57:29.614Z,10.63
2022-12-03T11:02:32.967Z,6.85
2022-12-03T11:07:38.300Z,10.55
2022-12-03T11:12:42.010Z,9.57
2022-12-03T11:17:49.876Z,6.13
2022-12-03T11:22:57.057Z,10.07
2022-12-03T11:28:38.532Z,9.95
2022-12-03T11:33:44.430Z,8.85
2022-12-03T11:38:54.116Z,7.32
2022-12-03T11:49:34.593Z,10.60
2022-12-03T11:54:39.584Z,11.05
2022-12-03T12:00:00.799Z,11.60
2022-12-03T12:05:18.666Z,11.68
2022-12-03T12:10:48.548Z,10.40
2022-12-03T12:15:54.352Z,8.98
2022-12-03T12:21:00.299Z,9.30
2022-12-03T12:26:12.614Z,12.13
2022-12-03T12:31:17.373Z,11.30
2022-12-03T12:36:22.042Z,5.80
2022-12-03T12:41:28.570Z,9.32
2022-12-03T12:46:47.836Z,7.10
2022-12-03T12:51:52.018Z,9.60
2022-12-03T12:56:57.302Z,9.65
2022-12-03T13:02:04.534Z,5.63
2022-12-03T13:07:14.034Z,9.98
2022-12-03T13:12:24.039Z,6.82
2022-12-03T13:17:27.682Z,6.45
2022-12-03T13:22:31.470Z,7.47
2022-12-03T13:27:36.492Z,7.53
2022-12-03T13:32:45.306Z,10.40
2022-12-03T13:37:49.438Z,7.80
2022-12-03T13:42:56.794Z,10.23
2022-12-03T13:48:01.319Z,9.55
2022-12-03T13:53:08.530Z,7.07
2022-12-03T13:58:13.610Z,9.50
2022-12-03T14:03:17.638Z,6.80
2022-12-03T14:08:22.110Z,8.55
2022-12-03T14:13:27.666Z,8.38
2022-12-03T14:18:31.301Z,10.70
2022-12-03T14:23:34.704Z,9.10
2022-12-03T14:28:39.327Z,9.55
2022-12-03T14:33:42.958Z,9.45
2022-12-03T14:38:46.863Z,8.30
2022-12-03T14:43:55.168Z,10.05
2022-12-03T14:48:59.961Z,10.05
2022-12-03T14:54:05.829Z,5.43
2022-12-03T14:59:10.862Z,9.35
2022-12-03T15:04:14.461Z,9.50
2022-12-03T15:09:20.935Z,11.38
2022-12-03T15:14:26.117Z,10.68
2022-12-03T15:19:29.630Z,8.65
2022-12-03T15:24:33.119Z,8.90
2022-12-03T15:29:38.114Z,9.60
2022-12-03T15:34:45.507Z,9.77
2022-12-03T15:39:49.231Z,9.35
2022-12-03T15:45:15.355Z,11.07
2022-12-03T15:50:26.245Z,5.90
2022-12-03T15:55:39.353Z,10.43
2022-12-03T16:00:51.494Z,9.85
2022-12-03T16:06:19.734Z,10.48
2022-12-03T16:11:23.385Z,11.27
2022-12-03T16:16:30.491Z,12.20
2022-12-03T16:21:56.548Z,11.45
2022-12-03T16:28:16.743Z,12.45
2022-12-03T16:33:28.133Z,12.38
2022-12-03T16:38:33.897Z,11.38
2022-12-03T16:43:39.747Z,11.57
2022-12-03T16:48:45.378Z,12.63
2022-12-03T16:53:48.715Z,13.57
2022-12-03T16:58:53.015Z,13.23
2022-12-03T17:03:59.482Z,14.82
2022-12-03T17:09:06.500Z,15.15
2022-12-03T17:14:10.007Z,14.40
2022-12-03T17:19:15.549Z,14.68
2022-12-03T17:24:19.233Z,15.77
2022-12-03T17:29:23.232Z,14.27
2022-12-03T17:34:32.821Z,14.18
2022-12-03T17:39:36.700Z,14.52
2022-12-03T17:44:41.762Z,13.90
2022-12-03T17:49:48.993Z,7.95
2022-12-03T17:55:10.399Z,15.50
2022-12-03T18:00:15.976Z,15.55
2022-12-03T18:05:21.218Z,14.00
2022-12-03T18:10:24.817Z,13.55
2022-12-03T18:15:31.007Z,13.60
2022-12-03T18:20:36.538Z,11.85
2022-12-03T18:25:41.415Z,13.00
2022-12-03T18:30:51.991Z,14.57
2022-12-03T18:35:59.278Z,14.25
2022-12-03T18:41:03.106Z,13.80
2022-12-03T18:46:31.160Z,13.52
2022-12-03T18:51:36.971Z,26.33
2022-12-03T18:56:41.278Z,15.10
2022-12-03T19:01:45.114Z,10.60
2022-12-03T19:06:51.387Z,13.82
2022-12-03T19:11:54.544Z,15.15
2022-12-03T19:16:58.433Z,15.10
2022-12-03T19:22:03.493Z,12.98
2022-12-03T19:27:08.049Z,14.50
2022-12-03T19:32:11.241Z,11.85
2022-12-03T19:37:16.498Z,13.10
2022-12-03T19:42:20.303Z,13.68
2022-12-03T19:47:25.348Z,12.35
2022-12-03T19:52:30.162Z,15.32
2022-12-03T19:57:34.593Z,11.05
2022-12-03T20:02:38.697Z,12.50
2022-12-03T20:07:44.678Z,12.73
2022-12-03T20:12:49.259Z,12.95
2022-12-03T20:17:54.304Z,13.30
2022-12-03T20:22:59.095Z,11.65
2022-12-03T20:28:03.634Z,13.63
2022-12-03T20:33:11.921Z,13.23
2022-12-03T20:38:18.775Z,11.20
2022-12-03T20:43:24.066Z,12.88
2022-12-03T20:48:27.757Z,13.25
2022-12-03T20:53:32.990Z,12.27
2022-12-03T20:58:37.578Z,10.75
2022-12-03T21:03:42.557Z,13.13
2022-12-03T21:08:47.411Z,13.95
2022-12-03T21:13:51.430Z,13.50
2022-12-03T21:18:54.775Z,10.38
2022-12-03T21:23:59.962Z,12.63
2022-12-03T21:29:03.664Z,12.15
2022-12-03T21:34:17.002Z,12.88
2022-12-03T21:39:23.795Z,12.82
2022-12-03T21:44:27.892Z,13.25
2022-12-03T21:49:31.674Z,14.35
2022-12-03T21:54:37.497Z,12.57
2022-12-03T21:59:40.862Z,11.65
2022-12-03T22:04:44.802Z,11.07
2022-12-03T22:09:50.964Z,16.20
2022-12-03T22:14:57.128Z,11.68
2022-12-03T22:20:00.620Z,13.32
2022-12-03T22:25:06.369Z,10.88
2022-12-03T22:30:11.168Z,5.80
2022-12-03T22:35:16.032Z,16.85
2022-12-03T22:40:21.551Z,12.88
2022-12-03T22:45:25.239Z,10.43
2022-12-03T22:50:28.641Z,11.82
2022-12-03T22:55:33.605Z,13.63
2022-12-03T23:00:39.034Z,19.90
2022-12-03T23:05:42.233Z,12.45
2022-12-03T23:10:48.177Z,12.93
2022-12-03T23:15:52.591Z,11.55
2022-12-03T23:20:58.301Z,10.73
2022-12-03T23:26:06.224Z,11.95
2022-12-03T23:31:18.081Z,6.90
2022-12-03T23:36:22.573Z,7.60
2022-12-03T23:41:28.267Z,10.00
2022-12-03T23:46:31.496Z,9.40
2022-12-03T23:51:34.863Z,8.98
2022-12-03T23:56:43.985Z,9.80
